Time;durP1;ratioP1;P1;durP2;ratioP2;P2;SDS_P1;SDS_P2;PMS_P1;PMS_P2;Temp;Humidity;BMP_temperature;BMP_pressure;BME280_temperature;BME280_humidity;BME280_pressure;Samples;Min_cycle;Max_cycle;Signal;HPM_P1;HPM_P2
2022/05/28 00:01:42;;;;;;;3.38;2.70;;;;;;;9.92;86.79;100052.25;5053347;28;20116;-74
2022/05/28 00:04:08;;;;;;;4.13;2.78;;;;;;;10.19;86.56;100100.56;5035416;28;20033;-73
2022/05/28 00:06:34;;;;;;;3.88;2.42;;;;;;;10.17;86.40;100086.00;5053119;28;20430;-74
2022/05/28 00:09:02;;;;;;;5.45;3.20;;;;;;;10.16;86.52;100095.81;5053370;28;20036;-74
2022/05/28 00:11:34;;;;;;;3.72;2.50;;;;;;;10.11;86.52;100098.53;5053457;28;20462;-73
2022/05/28 00:14:01;;;;;;;8.50;3.28;;;;;;;10.09;86.62;100087.59;5019341;28;20037;-73
2022/05/28 00:16:28;;;;;;;5.55;2.90;;;;;;;10.06;86.48;100094.28;5034926;28;20037;-74
2022/05/28 00:18:55;;;;;;;7.65;2.03;;;;;;;10.08;86.70;100091.72;5057012;28;20520;-73
2022/05/28 00:21:27;;;;;;;5.25;1.98;;;;;;;10.12;86.50;100095.16;5039752;28;20039;-73
2022/05/28 00:23:53;;;;;;;4.13;1.60;;;;;;;10.14;84.90;100097.53;5039290;28;20067;-73
2022/05/28 00:26:19;;;;;;;5.70;1.77;;;;;;;10.13;84.44;100090.28;5038890;28;20033;-74
2022/05/28 00:28:46;;;;;;;2.92;1.33;;;;;;;10.11;84.04;100081.44;5038828;28;20032;-74
2022/05/28 00:31:26;;;;;;;2.97;1.20;;;;;;;10.11;84.05;100087.94;5038995;28;20035;-74
2022/05/28 00:33:53;;;;;;;4.80;1.25;;;;;;;10.08;84.03;100074.66;5038802;28;20029;-73
2022/05/28 00:36:20;;;;;;;2.28;1.10;;;;;;;10.11;82.77;100089.97;5055994;28;20064;-73
2022/05/28 00:38:46;;;;;;;2.47;1.33;;;;;;;10.03;82.79;100061.06;5022299;28;20466;-73
2022/05/28 00:41:13;;;;;;;5.55;1.15;;;;;;;10.12;83.05;100077.31;5038913;28;20027;-73
2022/05/28 00:43:42;;;;;;;3.80;1.08;;;;;;;10.15;82.90;100079.22;5056695;28;20476;-73
2022/05/28 00:46:13;;;;;;;6.28;1.23;;;;;;;10.14;82.76;100069.88;5005879;28;20474;-73
2022/05/28 00:48:50;;;;;;;4.13;1.35;;;;;;;10.15;82.17;100082.06;5039150;28;20033;-73
2022/05/28 00:51:20;;;;;;;4.22;1.30;;;;;;;10.14;82.76;100074.78;5056890;28;20048;-74
2022/05/28 00:53:47;;;;;;;2.20;1.40;;;;;;;10.16;82.09;100077.97;5022488;28;20543;-73
2022/05/28 00:56:13;;;;;;;2.88;1.20;;;;;;;10.17;81.93;100076.69;5038546;28;20041;-74
2022/05/28 00:58:39;;;;;;;3.80;1.25;;;;;;;10.21;81.99;100066.69;5056119;28;20179;-73
2022/05/28 01:01:08;;;;;;;2.58;1.15;;;;;;;10.20;80.99;100072.88;5056141;28;20529;-73
2022/05/28 01:03:45;;;;;;;5.80;1.17;;;;;;;10.20;80.54;100062.28;5056421;28;20028;-74
2022/05/28 01:06:22;;;;;;;3.78;1.10;;;;;;;10.21;80.84;100075.22;5056321;28;20037;-73
2022/05/28 01:09:14;;;;;;;1.63;1.08;;;;;;;10.20;80.90;100072.88;5038052;28;20037;-74
2022/05/28 01:11:49;;;;;;;1.23;0.93;;;;;;;10.20;81.49;100076.53;5010031;28;20167;-72
2022/05/28 01:14:27;;;;;;;3.13;1.33;;;;;;;10.24;81.07;100074.28;5038448;28;20033;-74
2022/05/28 01:17:08;;;;;;;4.82;1.10;;;;;;;10.28;82.33;100076.94;5038628;28;20033;-74
2022/05/28 01:20:04;;;;;;;2.90;1.10;;;;;;;10.32;82.09;100072.66;5038021;28;20029;-75
2022/05/28 01:22:55;;;;;;;4.80;1.58;;;;;;;10.30;81.56;100066.66;5038123;28;20286;-73
2022/05/28 01:25:50;;;;;;;5.47;1.30;;;;;;;10.24;82.64;100073.50;5055891;28;20067;-72
2022/05/28 01:28:19;;;;;;;5.25;1.30;;;;;;;10.19;83.19;100069.25;5054705;28;20021;-73
2022/05/28 01:30:46;;;;;;;2.95;1.42;;;;;;;10.06;82.95;100068.66;5037820;28;20116;-73
2022/05/28 01:33:14;;;;;;;4.05;1.20;;;;;;;10.07;83.07;100072.28;5021225;28;20032;-73
2022/05/28 01:35:41;;;;;;;3.15;1.17;;;;;;;10.02;82.84;100070.06;5013633;28;20054;-74
2022/05/28 01:38:07;;;;;;;4.10;1.83;;;;;;;9.97;83.60;100066.63;5014535;28;20030;-73
2022/05/28 01:40:34;;;;;;;5.85;1.90;;;;;;;9.97;83.40;100063.00;4998223;28;20030;-73
2022/05/28 01:43:04;;;;;;;3.47;1.50;;;;;;;9.88;84.42;100057.34;4998196;28;20060;-74
2022/05/28 01:45:31;;;;;;;2.70;1.33;;;;;;;9.74;85.43;100058.03;4998245;28;20561;-74
2022/05/28 01:47:59;;;;;;;2.35;1.30;;;;;;;9.73;85.39;100057.25;5015612;28;20053;-75
2022/05/28 01:50:27;;;;;;;4.45;1.45;;;;;;;9.61;86.19;100054.63;4998051;28;20038;-75
2022/05/28 01:52:53;;;;;;;2.35;1.63;;;;;;;9.70;86.35;100049.69;4998023;28;20030;-74
2022/05/28 01:55:21;;;;;;;1.67;1.05;;;;;;;9.75;85.68;100049.03;4981835;28;20053;-73
2022/05/28 01:57:48;;;;;;;3.75;1.75;;;;;;;9.76;85.29;100042.09;4998080;28;20038;-74
2022/05/28 02:00:15;;;;;;;2.90;1.80;;;;;;;9.73;85.96;100047.91;4998327;28;20033;-75
2022/05/28 02:02:41;;;;;;;3.10;1.55;;;;;;;9.71;85.56;100048.41;5015442;28;20049;-73
2022/05/28 02:05:09;;;;;;;2.97;1.30;;;;;;;9.84;85.01;100040.47;5014181;28;20057;-74
2022/05/28 02:07:35;;;;;;;2.53;1.35;;;;;;;9.89;85.44;100051.19;5013909;28;20056;-74
2022/05/28 02:10:05;;;;;;;5.18;1.88;;;;;;;9.79;85.95;100043.97;5015283;28;20026;-73
2022/05/28 02:12:41;;;;;;;4.32;1.17;;;;;;;9.73;86.87;100039.38;5015409;28;20034;-73
2022/05/28 02:15:18;;;;;;;5.25;1.60;;;;;;;9.73;85.86;100036.53;5022424;28;20414;-73
2022/05/28 02:18:09;;;;;;;2.00;1.17;;;;;;;9.61;86.93;100040.41;5027541;28;20026;-73
2022/05/28 02:21:01;;;;;;;4.03;1.55;;;;;;;9.59;85.88;100023.81;5025819;28;20097;-71
2022/05/28 02:23:50;;;;;;;6.90;1.40;;;;;;;9.49;87.08;100036.47;5013733;28;20386;-72
2022/05/28 02:26:22;;;;;;;1.98;1.02;;;;;;;9.31;88.22;100030.84;5013743;28;20026;-73
2022/05/28 02:28:48;;;;;;;;;;;;;;;9.20;88.38;100022.03;4981616;28;20041;-72
2022/05/28 02:31:16;;;;;;;4.38;1.58;;;;;;;9.16;87.25;100044.94;5013809;28;19967;-73
2022/05/28 02:33:50;;;;;;;3.00;1.45;;;;;;;9.08;88.06;100040.81;5014995;28;20057;-72
2022/05/28 02:36:17;;;;;;;1.00;1.00;;;;;;;9.10;88.08;100035.47;5032659;28;20107;-73
2022/05/28 02:38:44;;;;;;;3.13;1.90;;;;;;;9.23;86.83;100030.38;5036419;28;20029;-73
2022/05/28 02:41:11;;;;;;;3.63;1.35;;;;;;;9.30;86.61;100034.94;5019736;28;20036;-73
2022/05/28 02:43:37;;;;;;;3.95;1.90;;;;;;;9.33;86.69;100031.13;5020339;28;20032;-73
2022/05/28 02:46:05;;;;;;;3.20;1.70;;;;;;;9.39;86.34;100030.03;5036609;28;20108;-72
2022/05/28 02:48:32;;;;;;;2.63;1.10;;;;;;;9.43;86.03;100033.47;5036371;28;20033;-72
2022/05/28 02:51:13;;;;;;;4.95;1.60;;;;;;;9.54;84.94;100030.13;5019926;28;20047;-73
2022/05/28 02:53:48;;;;;;;6.57;1.15;;;;;;;9.60;83.95;100027.44;5036607;28;20087;-74
2022/05/28 02:56:15;;;;;;;1.83;1.02;;;;;;;9.61;82.58;100020.50;5036347;28;20037;-73
2022/05/28 02:58:41;;;;;;;1.85;1.00;;;;;;;9.67;82.95;100019.34;5053993;28;20027;-73
2022/05/28 03:01:29;;;;;;;5.07;2.05;;;;;;;9.79;82.89;100024.03;5036227;28;20115;-73
2022/05/28 03:03:55;;;;;;;5.43;1.20;;;;;;;9.87;81.76;100028.09;5053652;28;20095;-73
2022/05/28 03:06:22;;;;;;;3.13;1.05;;;;;;;9.93;81.67;100019.72;5020016;28;20033;-72
2022/05/28 03:08:48;;;;;;;1.35;0.70;;;;;;;10.00;80.96;100022.22;5054839;28;20028;-72
2022/05/28 03:11:15;;;;;;;2.45;1.30;;;;;;;10.13;80.56;100016.28;5037041;28;20033;-72
2022/05/28 03:13:41;;;;;;;3.13;1.50;;;;;;;10.23;81.55;100026.38;5036037;28;20525;-73
2022/05/28 03:16:07;;;;;;;3.95;0.88;;;;;;;10.34;79.66;100030.25;5036063;28;20065;-73
2022/05/28 03:18:35;;;;;;;2.17;0.68;;;;;;;10.51;78.40;100035.53;5036566;28;20040;-73
2022/05/28 03:21:01;;;;;;;2.35;0.80;;;;;;;10.63;79.24;100035.28;5053855;28;20045;-74
2022/05/28 03:23:28;;;;;;;2.65;1.45;;;;;;;10.71;78.39;100022.22;5053697;28;20035;-72
2022/05/28 03:25:55;;;;;;;2.28;1.73;;;;;;;10.81;78.18;100035.13;5053852;28;20082;-73
2022/05/28 03:28:21;;;;;;;0.82;0.57;;;;;;;10.89;77.05;100027.00;5019207;28;20132;-73
2022/05/28 03:30:46;;;;;;;0.95;0.80;;;;;;;11.00;77.55;100026.44;5053534;28;20100;-72
2022/05/28 03:33:11;;;;;;;1.95;0.70;;;;;;;11.03;77.11;100031.16;5053411;28;20113;-72
2022/05/28 03:35:39;;;;;;;3.17;0.93;;;;;;;10.83;76.90;100011.84;5028626;28;20522;-74
2022/05/28 03:38:20;;;;;;;2.25;1.20;;;;;;;11.01;75.96;100037.31;5014034;28;20018;-73
2022/05/28 03:40:46;;;;;;;3.08;0.80;;;;;;;11.02;76.34;100024.66;5012520;28;20041;-73
2022/05/28 03:43:12;;;;;;;5.45;0.80;;;;;;;11.03;75.79;100011.97;5013865;28;20030;-73
2022/05/28 03:45:38;;;;;;;3.00;0.70;;;;;;;11.02;76.15;100023.88;5012731;28;20036;-72
2022/05/28 03:48:05;;;;;;;3.50;0.98;;;;;;;10.99;76.11;100024.84;5013838;28;20060;-72
2022/05/28 03:50:31;;;;;;;3.30;1.05;;;;;;;11.02;76.87;100030.34;4996442;28;20387;-72
2022/05/28 03:52:58;;;;;;;1.55;1.10;;;;;;;10.92;76.30;100017.47;5016921;28;20030;-72
2022/05/28 03:55:23;;;;;;;2.03;1.60;;;;;;;10.95;76.65;100018.56;5017681;28;20034;-72
2022/05/28 03:57:55;;;;;;;4.03;1.17;;;;;;;10.98;76.89;100018.38;5015459;28;20084;-73
2022/05/28 04:00:20;;;;;;;2.33;0.90;;;;;;;10.99;76.86;100019.16;5018106;28;20037;-72
2022/05/28 04:02:47;;;;;;;3.88;1.02;;;;;;;10.97;76.77;100022.47;5016700;28;20037;-74
2022/05/28 04:05:13;;;;;;;2.45;1.08;;;;;;;10.85;76.54;100012.16;5016433;28;20502;-74
2022/05/28 04:07:39;;;;;;;2.13;1.10;;;;;;;11.06;77.42;100038.69;5017459;28;20034;-74
2022/05/28 04:10:07;;;;;;;2.33;1.00;;;;;;;11.03;77.08;100014.84;5016517;28;20033;-73
2022/05/28 04:12:34;;;;;;;5.55;1.40;;;;;;;11.34;75.74;100027.84;5017682;28;20030;-74
2022/05/28 04:15:01;;;;;;;1.75;0.90;;;;;;;11.38;75.34;99999.91;5017420;28;20048;-74
2022/05/28 04:17:29;;;;;;;2.15;0.90;;;;;;;11.72;74.21;100016.28;5017533;28;20032;-74
2022/05/28 04:19:56;;;;;;;3.40;1.27;;;;;;;11.78;74.67;100022.91;5017570;28;20061;-74
2022/05/28 04:22:25;;;;;;;2.00;0.73;;;;;;;11.72;74.02;100022.00;5017083;28;20049;-74
2022/05/28 04:24:51;;;;;;;1.42;0.65;;;;;;;11.85;74.37;100025.34;5016028;28;20033;-72
2022/05/28 04:27:19;;;;;;;3.03;0.90;;;;;;;12.01;73.88;100032.59;5015709;28;20026;-73
2022/05/28 04:29:45;;;;;;;6.57;1.13;;;;;;;12.04;73.62;100035.25;5016016;28;20033;-73
2022/05/28 04:32:12;;;;;;;1.63;0.90;;;;;;;12.04;73.62;100037.31;4999484;28;20033;-73
2022/05/28 04:34:37;;;;;;;6.88;1.67;;;;;;;12.00;72.76;100028.97;5017080;28;20029;-73
2022/05/28 04:37:03;;;;;;;1.25;0.80;;;;;;;12.04;73.26;100032.38;5015576;28;20053;-73
2022/05/28 04:39:29;;;;;;;1.60;1.00;;;;;;;12.24;72.28;100034.50;5015601;28;20467;-74
2022/05/28 04:41:55;;;;;;;3.30;0.80;;;;;;;12.48;71.65;100028.63;5016739;28;20033;-74
2022/05/28 04:44:21;;;;;;;1.10;0.90;;;;;;;12.70;71.29;100023.19;5017266;28;20052;-74
2022/05/28 04:46:46;;;;;;;0.85;0.60;;;;;;;12.94;70.54;100023.72;5017095;28;20116;-73
2022/05/28 04:49:13;;;;;;;2.97;0.98;;;;;;;13.16;70.73;100031.00;5015446;28;20121;-73
2022/05/28 04:51:39;;;;;;;2.33;1.38;;;;;;;13.18;69.14;100031.28;5017007;28;20167;-74
2022/05/28 04:54:05;;;;;;;4.82;1.35;;;;;;;13.22;68.68;100029.00;5015305;28;20065;-73
2022/05/28 04:56:32;;;;;;;2.42;0.93;;;;;;;13.12;69.13;100001.88;5015595;28;20475;-73
2022/05/28 04:58:59;;;;;;;3.42;1.02;;;;;;;13.55;68.77;100022.81;5015203;28;20574;-73
2022/05/28 05:01:25;;;;;;;1.90;0.80;;;;;;;13.74;67.35;100019.06;5015464;28;20040;-73
2022/05/28 05:03:51;;;;;;;3.47;0.77;;;;;;;13.72;67.63;100018.00;5015075;28;20029;-74
2022/05/28 05:06:18;;;;;;;2.13;0.90;;;;;;;14.03;66.56;100005.75;5016622;28;20030;-74
2022/05/28 05:08:45;;;;;;;1.80;0.50;;;;;;;14.03;63.73;100022.94;5015431;28;20040;-74
2022/05/28 05:11:12;;;;;;;1.15;0.68;;;;;;;14.13;62.91;100009.97;4998665;28;20430;-73
2022/05/28 05:13:37;;;;;;;2.53;0.65;;;;;;;14.11;63.51;100019.06;4998956;28;20042;-73
2022/05/28 05:16:16;;;;;;;3.10;0.82;;;;;;;14.02;62.40;100013.56;5015404;28;20038;-73
2022/05/28 05:18:43;;;;;;;0.90;0.57;;;;;;;13.79;63.25;100020.41;5015116;28;20026;-74
2022/05/28 05:21:11;;;;;;;4.32;0.93;;;;;;;13.68;63.10;99998.19;5014691;28;20033;-74
2022/05/28 05:23:46;;;;;;;2.70;0.40;;;;;;;14.03;62.81;100028.66;5016537;28;20032;-74
2022/05/28 05:26:16;;;;;;;2.90;0.50;;;;;;;13.90;63.49;100019.72;5015850;28;20053;-74
2022/05/28 05:28:42;;;;;;;1.55;0.32;;;;;;;13.84;63.39;100026.19;4998385;28;20088;-72
2022/05/28 05:31:09;;;;;;;3.00;0.65;;;;;;;13.50;65.34;100027.19;5015970;28;20076;-73
2022/05/28 05:33:36;;;;;;;1.95;0.47;;;;;;;13.30;65.84;100024.41;5014359;28;20046;-75
2022/05/28 05:36:03;;;;;;;2.67;0.60;;;;;;;13.31;66.48;100025.97;5029373;28;20045;-73
2022/05/28 05:38:29;;;;;;;2.67;0.57;;;;;;;13.03;67.26;100014.19;5055093;28;20485;-74
2022/05/28 05:40:55;;;;;;;4.22;0.60;;;;;;;12.81;68.24;100008.25;5055351;28;20025;-74
2022/05/28 05:43:21;;;;;;;0.63;0.60;;;;;;;12.89;68.83;100012.22;5055303;28;20104;-73
2022/05/28 05:45:58;;;;;;;1.23;0.50;;;;;;;12.80;67.49;100001.72;5037364;28;20029;-73
2022/05/28 05:48:26;;;;;;;4.60;0.65;;;;;;;12.76;68.82;100003.25;5037276;28;20381;-74
2022/05/28 05:50:53;;;;;;;2.42;0.70;;;;;;;12.77;69.08;100007.69;5037546;28;20067;-75
2022/05/28 05:53:23;;;;;;;0.52;0.45;;;;;;;13.01;69.79;99990.25;5020801;28;20041;-75
2022/05/28 05:55:48;;;;;;;1.75;0.80;;;;;;;13.61;66.16;99998.69;5037468;28;20041;-74
2022/05/28 05:58:14;;;;;;;4.22;1.42;;;;;;;14.96;61.82;99992.41;5055236;28;20048;-76
2022/05/28 06:00:45;;;;;;;2.67;0.90;;;;;;;16.67;55.92;99979.28;5037153;28;20036;-74
2022/05/28 06:03:18;;;;;;;0.57;0.57;;;;;;;17.70;54.02;99982.56;5054737;28;20499;-75
2022/05/28 06:05:44;;;;;;;0.45;0.32;;;;;;;18.10;49.83;99978.00;5020816;28;20029;-76
2022/05/28 06:08:25;;;;;;;2.17;0.70;;;;;;;18.21;48.11;99982.84;5054853;28;20029;-74
2022/05/28 06:10:51;;;;;;;3.25;0.90;;;;;;;17.98;47.88;99985.97;5036348;28;20390;-74
2022/05/28 06:13:18;;;;;;;2.75;0.50;;;;;;;17.46;49.10;99994.00;5053967;28;20061;-74
2022/05/28 06:15:43;;;;;;;2.33;0.70;;;;;;;16.99;48.97;99999.78;5036318;28;20029;-74
2022/05/28 06:18:15;;;;;;;2.42;0.68;;;;;;;16.27;52.06;99992.22;5020136;28;20025;-73
2022/05/28 06:20:40;;;;;;;1.63;0.45;;;;;;;16.03;52.96;99991.22;5037060;28;20037;-74
2022/05/28 06:23:06;;;;;;;1.15;0.40;;;;;;;16.43;53.24;99990.56;5054602;28;20039;-74
2022/05/28 06:25:46;;;;;;;1.73;0.40;;;;;;;16.94;51.96;99991.19;5054455;28;20056;-74
2022/05/28 06:28:13;;;;;;;1.40;0.38;;;;;;;17.33;51.75;99993.81;5054313;28;20029;-75
2022/05/28 06:30:49;;;;;;;5.65;0.68;;;;;;;18.53;48.46;99993.28;5003910;28;20039;-75
2022/05/28 06:33:29;;;;;;;4.25;0.82;;;;;;;20.11;44.33;99984.66;5036732;28;20031;-75
2022/05/28 06:36:00;;;;;;;2.65;0.50;;;;;;;21.09;41.15;99980.28;5027092;28;20053;-75
2022/05/28 06:38:27;;;;;;;2.58;1.25;;;;;;;21.96;39.83;99980.88;5014728;28;20104;-74
2022/05/28 06:40:52;;;;;;;1.33;0.50;;;;;;;22.04;39.35;99975.13;4997405;28;20398;-74
2022/05/28 06:43:20;;;;;;;2.35;0.57;;;;;;;22.49;37.65;99973.91;5013153;28;20489;-74
2022/05/28 06:45:47;;;;;;;0.50;0.30;;;;;;;22.79;36.21;99957.44;5013298;28;20045;-75
2022/05/28 06:48:27;;;;;;;2.30;0.47;;;;;;;23.13;33.72;99974.66;5014524;28;20372;-73
2022/05/28 06:51:04;;;;;;;2.08;0.40;;;;;;;22.57;35.02;99960.22;5014222;28;20034;-75
2022/05/28 06:53:32;;;;;;;1.58;0.68;;;;;;;22.50;35.13;99963.88;5014602;28;20379;-74
2022/05/28 06:55:58;;;;;;;2.22;0.50;;;;;;;22.04;36.43;99969.34;5014248;28;20485;-74
2022/05/28 06:58:25;;;;;;;0.68;0.47;;;;;;;21.59;36.99;99974.69;5013208;28;20038;-75
2022/05/28 07:00:50;;;;;;;1.30;0.50;;;;;;;21.61;37.00;99966.22;5013163;28;20042;-75
2022/05/28 07:03:20;;;;;;;0.35;0.30;;;;;;;21.23;36.08;99951.31;5014079;28;20028;-75
2022/05/28 07:05:46;;;;;;;3.15;0.40;;;;;;;21.06;37.19;99964.03;5012807;28;20040;-75
2022/05/28 07:08:12;;;;;;;4.18;0.93;;;;;;;21.49;35.01;99959.91;5012925;28;20026;-75
2022/05/28 07:10:43;;;;;;;1.63;0.57;;;;;;;21.65;34.13;99957.94;5014181;28;20052;-75
2022/05/28 07:13:10;;;;;;;1.60;0.50;;;;;;;21.13;34.79;99965.47;5014127;28;20107;-74
2022/05/28 07:15:51;;;;;;;2.58;0.70;;;;;;;20.71;35.15;99972.47;4996479;28;20497;-75
2022/05/28 07:18:17;;;;;;;4.47;0.50;;;;;;;20.38;35.86;99960.22;5014196;28;20032;-75
2022/05/28 07:20:44;;;;;;;1.02;0.60;;;;;;;20.74;36.04;99962.66;5013726;28;20308;-75
2022/05/28 07:23:17;;;;;;;1.83;0.30;;;;;;;21.72;34.37;99955.09;4996345;28;20029;-75
2022/05/28 07:25:44;;;;;;;1.65;0.57;;;;;;;22.51;34.09;99940.06;5013767;28;20097;-74
2022/05/28 07:28:32;;;;;;;2.30;0.93;;;;;;;23.35;32.55;99937.50;4996005;28;20040;-74
2022/05/28 07:31:12;;;;;;;1.58;0.35;;;;;;;23.38;32.45;99939.28;5012438;28;20029;-75
2022/05/28 07:33:51;;;;;;;1.30;0.50;;;;;;;23.54;32.33;99938.75;5012624;28;20057;-74
2022/05/28 07:36:21;;;;;;;1.60;0.50;;;;;;;23.11;32.09;99947.53;5030790;28;20549;-74
2022/05/28 07:38:47;;;;;;;1.63;0.63;;;;;;;22.07;34.25;99942.09;5053343;28;20108;-74
2022/05/28 07:41:17;;;;;;;0.38;0.20;;;;;;;21.62;33.25;99954.03;5036249;28;20040;-74
2022/05/28 07:43:44;;;;;;;0.47;0.47;;;;;;;21.37;34.73;99944.13;5035977;28;20037;-74
2022/05/28 07:46:19;;;;;;;0.60;0.40;;;;;;;20.66;35.01;99928.59;5018960;28;20029;-74
2022/05/28 07:48:45;;;;;;;1.42;0.60;;;;;;;20.42;36.03;99943.31;5019490;28;20029;-74
2022/05/28 07:51:11;;;;;;;2.13;0.52;;;;;;;19.96;37.50;99946.81;5035339;28;20449;-75
2022/05/28 07:53:38;;;;;;;0.40;0.40;;;;;;;19.51;37.74;99947.59;5035222;28;20116;-75
2022/05/28 07:56:13;;;;;;;1.90;0.70;;;;;;;19.53;37.46;99929.69;5018834;28;20478;-75
2022/05/28 07:58:41;;;;;;;0.47;0.45;;;;;;;19.76;37.70;99940.31;5053251;28;20025;-75
2022/05/28 08:01:16;;;;;;;2.90;0.60;;;;;;;20.76;34.61;99940.50;5053037;28;20025;-75
2022/05/28 08:03:42;;;;;;;3.10;0.52;;;;;;;22.16;33.48;99912.56;5019827;28;20062;-76
2022/05/28 08:06:10;;;;;;;0.93;0.43;;;;;;;22.77;31.89;99927.44;5053050;28;20584;-75
2022/05/28 08:08:35;;;;;;;1.85;0.40;;;;;;;22.26;30.95;99942.59;5053462;28;20029;-73
2022/05/28 08:11:01;;;;;;;2.97;0.70;;;;;;;21.39;32.86;99932.75;5051268;28;20052;-73
2022/05/28 08:13:26;;;;;;;1.40;0.60;;;;;;;21.49;33.90;99936.72;5035228;28;20091;-75
2022/05/28 08:16:13;;;;;;;0.93;0.45;;;;;;;22.27;33.35;99935.47;5053115;28;20033;-75
2022/05/28 08:18:41;;;;;;;2.88;0.60;;;;;;;23.22;30.86;99932.66;5052077;28;20028;-74
2022/05/28 08:23:52;;;;;;;3.13;0.75;;;;;;;24.64;28.51;99931.72;5038244;28;20040;-76
2022/05/28 08:26:19;;;;;;;0.98;0.43;;;;;;;24.60;27.29;99926.28;5052960;28;20115;-77
2022/05/28 08:28:48;;;;;;;1.60;0.55;;;;;;;24.97;28.81;99915.09;5035040;28;20448;-75
2022/05/28 08:31:14;;;;;;;3.55;0.38;;;;;;;25.41;28.42;99942.44;5036037;28;20037;-74
2022/05/28 08:33:43;;;;;;;0.73;0.40;;;;;;;24.96;27.37;99942.72;5035250;28;20052;-74
2022/05/28 08:36:09;;;;;;;1.40;0.38;;;;;;;23.63;28.13;99917.06;5052613;28;20486;-75
2022/05/28 08:38:37;;;;;;;1.98;0.45;;;;;;;23.66;28.07;99928.31;5037429;28;20047;-74
2022/05/28 08:41:07;;;;;;;1.75;0.45;;;;;;;23.11;28.98;99944.63;5056602;28;20039;-74
2022/05/28 08:43:36;;;;;;;1.65;0.52;;;;;;;22.42;28.15;99934.00;5038858;28;20035;-74
2022/05/28 08:46:03;;;;;;;1.30;0.50;;;;;;;22.21;30.33;99934.81;5022296;28;20071;-75
2022/05/28 08:48:41;;;;;;;3.15;0.68;;;;;;;22.57;30.11;99934.88;5038634;28;20033;-76
2022/05/28 08:51:15;;;;;;;2.90;0.93;;;;;;;22.70;29.21;99928.97;5038608;28;20031;-74
2022/05/28 08:54:03;;;;;;;0.60;0.50;;;;;;;22.99;29.38;99938.38;5038513;28;20061;-74
2022/05/28 08:56:29;;;;;;;0.85;0.45;;;;;;;23.29;28.14;99922.41;5020356;28;20516;-74
2022/05/28 08:59:24;;;;;;;1.90;0.57;;;;;;;23.81;27.56;99927.53;5056155;28;20052;-74
2022/05/28 09:01:50;;;;;;;2.38;0.63;;;;;;;23.16;27.30;99926.22;5041386;28;20029;-74
2022/05/28 09:04:31;;;;;;;1.17;0.40;;;;;;;22.22;28.82;99936.38;5021610;28;20501;-74
2022/05/28 09:07:14;;;;;;;1.25;0.68;;;;;;;21.21;29.91;99943.19;5038062;28;20025;-74
2022/05/28 09:10:02;;;;;;;0.77;0.35;;;;;;;20.01;32.43;99945.94;5038486;28;20474;-73
2022/05/28 09:12:53;;;;;;;0.40;0.30;;;;;;;19.84;33.67;99943.31;5038358;28;20466;-77
2022/05/28 09:15:18;;;;;;;3.72;0.50;;;;;;;19.54;33.93;99952.25;5056272;28;20082;-74
2022/05/28 09:17:47;;;;;;;0.85;0.40;;;;;;;19.22;35.89;99963.75;5038292;28;20017;-76
2022/05/28 09:20:18;;;;;;;0.75;0.20;;;;;;;19.93;35.58;99940.00;5038106;28;20031;-74
2022/05/28 09:22:44;;;;;;;2.97;0.55;;;;;;;20.40;33.78;99953.88;5022222;28;20037;-74
2022/05/28 09:25:11;;;;;;;3.67;0.60;;;;;;;20.75;33.77;99956.31;5056898;28;20033;-75
2022/05/28 09:28:04;;;;;;;2.40;0.40;;;;;;;21.15;32.89;99947.56;5022411;28;20108;-75
2022/05/28 09:30:57;;;;;;;1.20;0.20;;;;;;;20.94;33.00;99938.78;5055925;28;20025;-74
2022/05/28 09:33:42;;;;;;;0.95;0.60;;;;;;;20.66;32.87;99945.97;5037570;28;20025;-74
2022/05/28 09:36:40;;;;;;;0.68;0.45;;;;;;;19.95;34.94;99942.34;5055254;28;20049;-74
2022/05/28 09:39:30;;;;;;;1.77;0.32;;;;;;;19.34;36.07;99947.03;5040628;28;20029;-74
2022/05/28 09:42:02;;;;;;;0.55;0.38;;;;;;;19.54;36.55;99925.47;5055513;28;20174;-74
2022/05/28 09:44:55;;;;;;;0.43;0.20;;;;;;;19.72;36.23;99934.09;5037965;28;20083;-75
2022/05/28 09:47:48;;;;;;;1.83;0.30;;;;;;;20.07;35.69;99920.56;5055423;28;20033;-75
2022/05/28 09:50:27;;;;;;;1.55;0.30;;;;;;;20.15;36.02;99916.47;5054024;28;20027;-74
2022/05/28 09:55:59;;;;;;;1.48;0.40;;;;;;;18.57;38.70;99946.03;5040639;28;20102;-75
2022/05/28 09:58:30;;;;;;;0.55;0.20;;;;;;;18.06;40.23;99975.41;5037200;28;20039;-75
2022/05/28 10:01:05;;;;;;;0.98;0.20;;;;;;;18.04;40.30;99965.75;5037718;28;20072;-75
2022/05/28 10:06:21;;;;;;;0.40;0.20;;;;;;;18.99;38.67;99976.97;5026349;28;20120;-74
2022/05/28 10:08:46;;;;;;;1.90;0.20;;;;;;;19.46;37.60;99945.56;5054853;28;20060;-74
2022/05/28 10:11:28;;;;;;;0.15;0.15;;;;;;;19.46;38.16;99971.56;5054914;28;20326;-75
2022/05/28 10:14:00;;;;;;;5.18;0.73;;;;;;;19.03;38.84;99963.00;5055030;28;20033;-74
2022/05/28 10:16:52;;;;;;;0.30;0.30;;;;;;;18.91;39.04;99967.34;5037769;28;20086;-75
2022/05/28 10:19:39;;;;;;;1.13;0.32;;;;;;;18.71;39.04;99951.34;5054582;28;20048;-75
2022/05/28 10:22:18;;;;;;;0.28;0.22;;;;;;;18.45;39.44;99945.38;5054887;28;20055;-75
2022/05/28 10:24:50;;;;;;;0.30;0.30;;;;;;;18.36;39.57;99954.38;5054835;28;20493;-75
2022/05/28 10:27:34;;;;;;;0.30;0.20;;;;;;;18.38;40.18;99955.41;5037681;28;20052;-75
2022/05/28 10:30:03;;;;;;;1.42;0.28;;;;;;;18.53;39.58;99958.69;5037252;28;20397;-74
2022/05/28 10:32:36;;;;;;;1.02;0.28;;;;;;;19.28;40.17;99946.34;5037197;28;20099;-74
2022/05/28 10:35:27;;;;;;;0.45;0.20;;;;;;;19.47;38.16;99938.47;5054761;28;20417;-75
2022/05/28 10:37:53;;;;;;;0.63;0.57;;;;;;;18.91;38.96;99945.03;5053982;28;20429;-74
2022/05/28 10:40:23;;;;;;;0.70;0.38;;;;;;;18.39;39.72;99961.97;5036791;28;20056;-74
2022/05/28 10:43:12;;;;;;;1.00;0.55;;;;;;;17.91;40.91;99985.81;5054590;28;20033;-75
2022/05/28 10:45:41;;;;;;;0.47;0.25;;;;;;;17.16;42.54;99986.09;5036879;28;20028;-75
2022/05/28 10:48:32;;;;;;;1.52;0.47;;;;;;;17.41;43.30;99975.47;5020059;28;20059;-74
2022/05/28 10:51:11;;;;;;;1.35;0.35;;;;;;;17.08;44.04;99987.16;5054409;28;20525;-74
2022/05/28 10:53:58;;;;;;;1.92;0.60;;;;;;;16.84;45.03;99982.84;5037121;28;20025;-74
2022/05/28 10:56:48;;;;;;;1.13;0.43;;;;;;;16.81;46.66;99975.31;5054459;28;20032;-76
2022/05/28 10:59:28;;;;;;;1.05;0.30;;;;;;;16.69;47.90;99991.03;5036477;28;20028;-75
2022/05/28 11:02:13;;;;;;;0.52;0.20;;;;;;;16.74;47.98;99998.84;5054301;28;20028;-74
2022/05/28 11:05:14;;;;;;;0.20;0.20;;;;;;;16.87;47.93;99997.50;5054023;28;20079;-75
2022/05/28 11:07:55;;;;;;;0.52;0.30;;;;;;;16.74;48.61;100000.94;5053997;28;20028;-75
2022/05/28 11:10:48;;;;;;;0.77;0.40;;;;;;;16.60;48.55;99990.56;5036248;28;20021;-74
2022/05/28 11:13:46;;;;;;;0.50;0.50;;;;;;;16.64;52.52;99986.09;5053793;28;20037;-74
2022/05/28 11:16:47;;;;;;;2.20;0.68;;;;;;;16.89;50.88;99984.13;5053561;28;20032;-74
2022/05/28 11:19:18;;;;;;;1.67;0.98;;;;;;;17.06;46.97;99987.72;5053744;28;20032;-74
2022/05/28 11:22:00;;;;;;;2.80;0.40;;;;;;;17.15;47.15;99969.34;5053649;28;20056;-74
2022/05/28 11:24:35;;;;;;;0.40;0.30;;;;;;;17.59;45.33;99968.25;5053330;28;20521;-75
2022/05/28 11:27:28;;;;;;;1.10;0.45;;;;;;;17.53;43.88;99974.03;5053444;28;20040;-75
2022/05/28 11:30:03;;;;;;;1.58;0.50;;;;;;;17.71;43.48;99968.97;5053562;28;20036;-75
2022/05/28 11:32:58;;;;;;;2.75;0.32;;;;;;;17.79;43.00;99967.81;5035586;28;20029;-75
2022/05/28 11:35:46;;;;;;;0.82;0.30;;;;;;;17.87;43.10;99950.72;5027551;28;20037;-75
2022/05/28 11:38:35;;;;;;;0.77;0.30;;;;;;;17.97;43.72;99949.81;5053650;28;20405;-75
2022/05/28 11:41:28;;;;;;;0.55;0.55;;;;;;;18.14;42.24;99946.78;5053694;28;20021;-74
2022/05/28 11:44:48;;;;;;;0.98;0.38;;;;;;;18.01;42.41;99938.00;5053405;28;20462;-74
2022/05/28 11:47:48;;;;;;;1.40;0.50;;;;;;;18.18;44.43;99932.84;4991875;28;20030;-74
2022/05/28 11:53:31;;;;;;;1.40;0.55;;;;;;;18.30;41.53;99933.50;5053492;28;20099;-75
2022/05/28 11:56:06;;;;;;;5.13;0.95;;;;;;;18.18;41.03;99923.41;5053182;28;20029;-75
2022/05/28 11:58:52;;;;;;;12.45;1.77;;;;;;;18.27;40.12;99931.69;5035668;28;20048;-74
2022/05/28 12:01:25;;;;;;;2.55;0.20;;;;;;;17.98;40.35;99934.09;5053049;28;20033;-74
2022/05/28 12:04:05;;;;;;;0.30;0.30;;;;;;;17.66;42.69;99933.13;5053272;28;20033;-75
2022/05/28 12:06:35;;;;;;;3.80;0.57;;;;;;;17.42;48.79;99961.81;5053274;28;20040;-74
2022/05/28 12:09:15;;;;;;;3.63;0.82;;;;;;;16.83;62.12;99986.25;5052989;28;20462;-73